aviador You're here:

KLPC Decoded Metar

LOMPOC in CA, USA
Report Time2017-10-17 19:56:00
UTC Time2017-10-17 20:22:46
Flight Rules vfr VFR
Wind270° at 19 kt
W.Decomp.*RWY 25: 18.9 kt HW 1.7 kt RCW
W.Rank270° ranks 1
Current wind is above 270° avg. (9.0)
Visibility9999 m
Phenomena:N/A
Clouds:N/A
Expected CloudBase > 3,200 ft AGL from Temp-Dew spread
CeilingNone
Temp22°C (ISA +7)
Dew Point14°C (61% RH)
AAT16.5°C
QNH1019 hPa
Density Alt938 ft
Elevation89 ft
Report Wrong Elevation
Raw Report
KLPC 171956Z AUTO 27019KT 10SM CLR 22/14 A3008 RMK AO2 PK WND
27026/1936 SLP191 T02170144=

Extra information for KLPC:More info

Metar Taf Metar & Taf Last 4 Metars F.Rules Stats Wind Profile Meteogram Temp Stats Airport Information Weather charts Add Link Nearby VenuesMetar ALERT Operation Metar Decoded Social comments

AIRNAV info for KLPC